Airfield :
LOGIN :

Register | Disclaimer

   EN    FR    IT 

 










Legend :    VFR   Marginal VFR   IFR   Intensive IFR   Very Intensive IFR
Visi :
Ceiling :
>= 8 km
>= 3000ft
5 to 8 km
1000 to 3000 ft
1500m to 5 km
500 to 1000 ft
800 to 1500m
200 to 500 ft
< 800m
< 200 ft
Symbols :   Thunderstorms  Fog  Heavy snow  Heavy precipitations  Wind > 20 kt
SIGMETs :     Misc.  Thunderstorms  Icing  Turbulence  Mountain Waves  Volcanic Ashes







- Airport Elevation : 256 ft
- IATA code : CFR
- Download approach charts


LFRK - Caen

CURRENT METAR :
  • 210100Z AUTO 19017KT 9999 OVC018 16/14 Q1007

EXPIRED METARs :
  • 210030Z AUTO 18015KT 9999 BKN022 BKN028 OVC036 16/13 Q1007
  • 210000Z AUTO 19017KT 9999 SCT023 BKN040 BKN054 16/13 Q1007
  • 202330Z AUTO 18016KT 9999 BKN021 BKN027 OVC120 16/12 Q1007
  • 202300Z AUTO 17016KT 9999 BKN020 BKN025 BKN120 15/12 Q1008
  • 202230Z AUTO 18016KT 9999 FEW020 SCT030 BKN150 15/12 Q1008

Expired Forecast.
Met : +33 2 31 26 68 11
No reported NOTAMs for that airfield.
2 SIGMETs reported for the Brest FIR (LFRR) :
 
Severe turbulence
LFRR SIGMET 6 VALID 202300/210300 LFPW
LFRR BREST FIR/UIR SEV TURB FCST WI N4915 W00615 - N5000 W00200 - N5000 W00015 - N4845 W00015 - N4700 W00415 SFC/FL060 MOV E 25KT NC=
Severe turbulence
LFRR SIGMET 5 VALID 202300/210300 LFPW
LFRR BREST FIR/UIR SEV TURB FCST NW OF LINE N5000 W00100 - N4545 W00800 FL180/280 MOV E 25KT NC=



MET'MAP, your aeronautical weather chart ! - Copyright ORBIFLY December 2007 - Disclaimer

ORBIFLY MET'MAP TEAM :

Programming & Development : Alexandra Zaïnal
Concept & Development : Baudouin d'Aumeries
Co-Development & Prog : Marc-Olivier Méhu
Technical & hardware support : Manuel Goepfert

Contact : metmap@orbifly.com




SOURCES & CREDITS :

   NOAA